Time;durP1;ratioP1;P1;durP2;ratioP2;P2;SDS_P1;SDS_P2;PMS_P1;PMS_P2;Temp;Humidity;BMP_temperature;BMP_pressure;BME280_temperature;BME280_humidity;BME280_pressure;Samples;Min_cycle;Max_cycle;Signal;HPM_P1;HPM_P2
2024/02/08 00:00:15;;;;;;;1.95;1.02;;;;;;;11.61;100.00;99267.13;5069488;28;20496;-72
2024/02/08 00:02:41;;;;;;;1.38;1.05;;;;;;;11.62;100.00;99272.38;5074302;28;20042;-71
2024/02/08 00:05:08;;;;;;;2.08;1.00;;;;;;;11.64;100.00;99269.25;5079015;28;20111;-71
2024/02/08 00:07:33;;;;;;;2.03;1.00;;;;;;;11.64;100.00;99269.25;5056403;28;20028;-72
2024/02/08 00:09:59;;;;;;;2.15;1.33;;;;;;;11.63;100.00;99270.41;5043298;28;20086;-72
2024/02/08 00:12:25;;;;;;;1.48;0.80;;;;;;;11.62;100.00;99275.16;5067583;28;20032;-71
2024/02/08 00:14:51;;;;;;;2.90;1.05;;;;;;;11.63;100.00;99273.19;5065547;28;20047;-71
2024/02/08 00:17:20;;;;;;;1.73;0.90;;;;;;;11.61;100.00;99275.47;5057724;28;20438;-71
2024/02/08 00:19:48;;;;;;;2.25;0.70;;;;;;;11.64;100.00;99269.25;5089566;28;20043;-71
2024/02/08 00:22:20;;;;;;;1.08;0.77;;;;;;;11.64;100.00;99274.81;5091599;28;20032;-71
2024/02/08 00:24:45;;;;;;;2.63;0.80;;;;;;;11.65;100.00;99264.53;5052374;28;20039;-71
2024/02/08 00:27:11;;;;;;;1.13;0.52;;;;;;;11.64;100.00;99269.25;5075008;28;20032;-71
2024/02/08 00:29:41;;;;;;;1.02;0.60;;;;;;;11.65;100.00;99259.78;5069716;28;20086;-71
2024/02/08 00:32:07;;;;;;;1.25;0.60;;;;;;;11.66;100.00;99266.97;5070654;28;20067;-71
2024/02/08 00:34:33;;;;;;;2.80;0.90;;;;;;;11.66;100.00;99266.16;5033873;28;20040;-71
2024/02/08 00:36:59;;;;;;;2.15;0.55;;;;;;;11.65;100.00;99259.78;5069772;28;20028;-72
2024/02/08 00:39:24;;;;;;;1.75;0.60;;;;;;;11.64;100.00;99263.69;5076219;28;20040;-71
2024/02/08 00:41:50;;;;;;;0.93;0.50;;;;;;;11.65;100.00;99256.19;5051854;28;20024;-71
2024/02/08 00:44:17;;;;;;;0.90;0.40;;;;;;;11.66;100.00;99263.38;5055153;28;20067;-71
2024/02/08 00:46:42;;;;;;;1.00;0.63;;;;;;;11.66;100.00;99252.25;5040545;28;20464;-72
2024/02/08 00:49:08;;;;;;;4.13;0.85;;;;;;;11.68;100.00;99261.09;5044974;28;20028;-71
2024/02/08 00:51:34;;;;;;;2.05;0.63;;;;;;;11.67;100.00;99263.03;5057018;28;20036;-71
2024/02/08 00:54:00;;;;;;;2.70;0.60;;;;;;;11.67;100.00;99251.91;5044304;28;20040;-71
2024/02/08 00:56:26;;;;;;;6.38;0.80;;;;;;;11.67;100.00;99256.66;5059320;28;20029;-71
2024/02/08 00:58:52;;;;;;;4.10;0.80;;;;;;;11.67;100.00;99251.91;5058875;28;20025;-71
2024/02/08 01:01:17;;;;;;;1.80;0.65;;;;;;;11.67;100.00;99253.88;5057851;28;20024;-71
2024/02/08 01:03:44;;;;;;;1.88;0.73;;;;;;;11.67;100.00;99251.91;5077846;28;20024;-71
2024/02/08 01:06:09;;;;;;;3.55;1.13;;;;;;;11.68;100.00;99248.00;5057529;28;20052;-71
2024/02/08 01:08:36;;;;;;;2.67;0.70;;;;;;;11.66;100.00;99241.94;5060870;28;20043;-71
2024/02/08 01:11:02;;;;;;;2.40;0.90;;;;;;;11.66;100.00;99244.72;5075676;28;20024;-71
2024/02/08 01:13:28;;;;;;;1.95;0.98;;;;;;;11.66;100.00;99243.91;5058591;28;20070;-71
2024/02/08 01:15:56;;;;;;;4.07;1.10;;;;;;;11.65;100.00;99245.88;5042607;28;20538;-71
2024/02/08 01:18:22;;;;;;;3.95;0.75;;;;;;;11.63;100.00;99239.81;5059445;28;20032;-71
2024/02/08 01:20:48;;;;;;;6.55;1.30;;;;;;;11.66;100.00;99241.13;5058979;28;20033;-72
2024/02/08 01:23:17;;;;;;;5.25;1.20;;;;;;;11.68;100.00;99242.44;5042418;28;20033;-71
2024/02/08 01:25:43;;;;;;;6.45;1.10;;;;;;;11.68;100.00;99242.44;5075534;28;20029;-71
2024/02/08 01:28:08;;;;;;;5.25;1.27;;;;;;;11.66;100.00;99241.13;5058509;28;20477;-71
2024/02/08 01:30:38;;;;;;;6.45;1.13;;;;;;;11.65;100.00;99237.53;5058709;28;20044;-71
2024/02/08 01:33:06;;;;;;;6.50;1.50;;;;;;;11.66;100.00;99239.16;5035944;28;20028;-71
2024/02/08 01:35:32;;;;;;;4.50;1.40;;;;;;;11.66;100.00;99241.13;5058996;28;20052;-71
2024/02/08 01:37:59;;;;;;;8.13;1.50;;;;;;;11.67;100.00;99240.78;5037530;28;20062;-71
2024/02/08 01:40:26;;;;;;;9.15;2.35;;;;;;;11.67;100.00;99238.00;5073353;28;20541;-71
2024/02/08 01:42:57;;;;;;;10.63;2.20;;;;;;;11.69;100.00;99237.69;5042055;28;20020;-71
2024/02/08 01:45:33;;;;;;;6.95;2.05;;;;;;;11.66;100.00;99238.34;5050587;28;20037;-71
2024/02/08 01:48:00;;;;;;;6.93;2.20;;;;;;;11.66;100.00;99238.34;5069828;28;20121;-71
2024/02/08 01:50:25;;;;;;;12.38;2.17;;;;;;;11.65;100.00;99248.66;5038909;28;20032;-71
2024/02/08 01:52:51;;;;;;;11.00;2.70;;;;;;;11.67;100.00;99242.75;5051025;28;20411;-71
2024/02/08 01:55:18;;;;;;;14.88;2.97;;;;;;;11.65;100.00;99234.75;5072003;28;20032;-71
2024/02/08 01:57:44;;;;;;;13.25;3.15;;;;;;;11.63;100.00;99229.50;5053839;28;20084;-71
2024/02/08 02:00:11;;;;;;;14.57;3.50;;;;;;;11.63;100.00;99228.69;5035420;28;20111;-71
2024/02/08 02:02:39;;;;;;;12.98;4.63;;;;;;;11.63;100.00;99223.94;5054476;28;20043;-71
2024/02/08 02:05:04;;;;;;;23.95;5.15;;;;;;;11.62;100.00;99227.06;5058579;28;20063;-71
2024/02/08 02:07:30;;;;;;;20.65;4.63;;;;;;;11.63;100.00;99226.72;5075933;28;20024;-71
2024/02/08 02:09:57;;;;;;;33.83;7.53;;;;;;;11.58;100.00;99221.34;5075388;28;20039;-71
2024/02/08 02:12:25;;;;;;;29.63;5.63;;;;;;;11.59;100.00;99224.97;5075742;28;20079;-71
2024/02/08 02:14:52;;;;;;;29.20;6.15;;;;;;;11.59;100.00;99227.75;5075230;28;20491;-71
2024/02/08 02:17:25;;;;;;;22.92;5.85;;;;;;;11.56;100.00;99212.53;5076701;28;20484;-72
2024/02/08 02:19:52;;;;;;;30.73;6.68;;;;;;;11.57;100.00;99221.69;5074447;28;20036;-71
2024/02/08 02:22:20;;;;;;;29.80;6.85;;;;;;;11.53;100.00;99215.16;5094657;28;20032;-71
2024/02/08 02:24:49;;;;;;;39.45;7.50;;;;;;;11.51;100.00;99215.50;5088824;28;20078;-72
2024/02/08 02:27:15;;;;;;;38.60;6.47;;;;;;;11.52;100.00;99217.13;5077611;28;20032;-71
2024/02/08 02:29:40;;;;;;;30.85;6.95;;;;;;;11.48;100.00;99212.53;5088905;28;20082;-71
2024/02/08 02:32:11;;;;;;;29.55;6.57;;;;;;;11.46;100.00;99212.06;5058133;28;20024;-71
2024/02/08 02:34:38;;;;;;;34.38;7.15;;;;;;;11.43;100.00;99210.78;5072237;28;20066;-71
2024/02/08 02:37:04;;;;;;;41.22;8.45;;;;;;;11.39;100.00;99215.34;5041190;28;20024;-71
2024/02/08 02:39:31;;;;;;;39.50;7.82;;;;;;;11.38;100.00;99208.97;5050897;28;20047;-71
2024/02/08 02:41:58;;;;;;;49.55;8.95;;;;;;;11.37;100.00;99203.75;5032113;28;20056;-71
2024/02/08 02:44:23;;;;;;;44.83;7.93;;;;;;;11.31;100.00;99199.50;5046111;28;20041;-71
2024/02/08 02:46:53;;;;;;;46.10;8.23;;;;;;;11.32;100.00;99181.69;5044380;28;20059;-71
2024/02/08 02:49:21;;;;;;;47.03;10.65;;;;;;;11.28;100.00;99178.78;5062855;28;20032;-72
2024/02/08 02:51:48;;;;;;;51.72;9.45;;;;;;;11.26;100.00;99169.94;5061781;28;20104;-71
2024/02/08 02:54:19;;;;;;;44.35;9.63;;;;;;;11.26;100.00;99163.56;5045243;28;20033;-71
2024/02/08 02:56:47;;;;;;;33.58;9.00;;;;;;;11.25;100.00;99165.50;5045842;28;20024;-71
2024/02/08 02:59:17;;;;;;;48.78;9.93;;;;;;;11.22;100.00;99163.41;5044373;28;20036;-71
2024/02/08 03:01:49;;;;;;;46.67;10.00;;;;;;;11.21;100.00;99160.97;5040412;28;20059;-71
2024/02/08 03:04:17;;;;;;;47.63;9.18;;;;;;;11.20;100.00;99146.25;5037835;28;20108;-71
2024/02/08 03:06:45;;;;;;;46.20;10.10;;;;;;;11.19;100.00;99152.94;5072035;28;22465;-71
2024/02/08 03:09:15;;;;;;;41.85;8.93;;;;;;;11.14;100.00;99140.06;5070147;28;20029;-71
2024/02/08 03:11:44;;;;;;;46.63;9.90;;;;;;;11.15;100.00;99147.25;5071679;28;20035;-71
2024/02/08 03:14:10;;;;;;;50.67;10.18;;;;;;;11.15;100.00;99140.88;5077616;28;20037;-71
2024/02/08 03:16:41;;;;;;;51.65;9.48;;;;;;;11.15;100.00;99136.13;5043659;28;20452;-71
2024/02/08 03:19:06;;;;;;;48.97;10.10;;;;;;;11.14;100.00;99137.28;5061849;28;20029;-72
2024/02/08 03:21:35;;;;;;;49.50;9.80;;;;;;;11.13;100.00;99132.06;5060912;28;20568;-71
2024/02/08 03:24:07;;;;;;;54.08;10.38;;;;;;;11.14;100.00;99134.50;5045408;28;20119;-71
2024/02/08 03:26:44;;;;;;;52.80;10.50;;;;;;;11.09;100.00;99122.75;5056442;28;20099;-71
2024/02/08 03:29:13;;;;;;;49.50;9.77;;;;;;;11.13;100.00;99116.19;5046764;28;20031;-71
2024/02/08 03:31:45;;;;;;;68.93;11.60;;;;;;;11.13;100.00;99118.16;5053300;28;20031;-71
2024/02/08 03:34:19;;;;;;;50.65;10.35;;;;;;;11.14;100.00;99109.50;5064940;28;20484;-71
2024/02/08 03:36:46;;;;;;;55.10;10.55;;;;;;;11.12;100.00;99103.47;5050748;28;20557;-71
2024/02/08 03:39:24;;;;;;;50.83;10.63;;;;;;;11.09;100.00;99101.34;5060985;28;20386;-71
2024/02/08 03:41:59;;;;;;;60.22;11.48;;;;;;;11.06;100.00;99102.00;5055124;28;20025;-71
2024/02/08 03:44:25;;;;;;;59.97;11.23;;;;;;;11.09;100.00;99094.97;5056676;28;20028;-71
2024/02/08 03:46:51;;;;;;;54.60;10.63;;;;;;;11.07;100.00;99098.06;5059916;28;20044;-72
2024/02/08 03:49:17;;;;;;;51.30;10.82;;;;;;;11.05;100.00;99092.03;5041516;28;20059;-71
2024/02/08 03:51:42;;;;;;;55.97;10.57;;;;;;;11.04;100.00;99087.63;5090872;28;20020;-71
2024/02/08 03:54:08;;;;;;;57.72;9.55;;;;;;;11.06;100.00;99087.28;5069027;28;20024;-71
2024/02/08 03:56:37;;;;;;;60.63;11.18;;;;;;;11.04;100.00;99073.75;5092137;28;20032;-71
2024/02/08 03:59:07;;;;;;;48.92;9.88;;;;;;;11.05;100.00;99072.56;5059243;28;20188;-71
2024/02/08 04:01:33;;;;;;;50.92;9.40;;;;;;;11.02;100.00;99069.66;5082671;28;20024;-71
2024/02/08 04:04:12;;;;;;;54.83;10.60;;;;;;;11.04;100.00;99059.03;5080619;28;20036;-71
2024/02/08 04:09:48;;;;;;;63.25;11.00;;;;;;;11.03;100.00;99058.22;5061891;28;20032;-71
2024/02/08 04:53:39;;;;;;;53.42;10.45;;;;;;;11.12;100.00;98970.09;5032556;28;20533;-71
2024/02/08 04:56:09;;;;;;;48.63;9.93;;;;;;;11.13;100.00;98971.72;5023870;28;20497;-71
2024/02/08 04:58:36;;;;;;;66.13;10.73;;;;;;;11.13;100.00;98960.59;5038804;28;20025;-71
2024/02/08 05:01:01;;;;;;;60.85;10.57;;;;;;;11.11;100.00;98960.09;5019274;28;20030;-71
2024/02/08 05:03:27;;;;;;;56.38;10.32;;;;;;;11.14;100.00;98939.19;5022903;28;20040;-71
2024/02/08 05:05:54;;;;;;;64.00;10.90;;;;;;;11.14;100.00;98934.47;5055809;28;20031;-71
2024/02/08 05:08:21;;;;;;;57.70;9.82;;;;;;;11.12;100.00;98930.38;5022977;28;20557;-71
2024/02/08 05:10:48;;;;;;;51.97;9.52;;;;;;;11.12;100.00;98922.06;5055714;28;20029;-71
2024/02/08 05:13:14;;;;;;;63.90;11.50;;;;;;;11.13;100.00;98915.31;5006111;28;20103;-71
2024/02/08 05:15:41;;;;;;;61.15;10.52;;;;;;;11.11;100.00;98918.44;5039114;28;20371;-71
2024/02/08 05:18:11;;;;;;;66.20;11.15;;;;;;;11.15;100.00;98913.03;5055892;28;20029;-71
2024/02/08 05:20:37;;;;;;;62.85;11.02;;;;;;;11.15;100.00;98908.28;5039525;28;20055;-71
2024/02/08 05:23:03;;;;;;;62.58;10.52;;;;;;;11.15;100.00;98907.47;5039049;28;20059;-72
2024/02/08 05:25:28;;;;;;;52.03;10.55;;;;;;;11.15;100.00;98904.69;5022406;28;20520;-71
2024/02/08 05:27:54;;;;;;;67.65;11.15;;;;;;;11.16;100.00;98901.56;5021954;28;20028;-71
2024/02/08 05:30:20;;;;;;;62.83;11.32;;;;;;;11.17;100.00;98902.38;5038813;28;20040;-71
2024/02/08 05:32:46;;;;;;;58.67;10.48;;;;;;;11.16;100.00;98900.75;5022565;28;20033;-71
2024/02/08 05:35:13;;;;;;;59.88;9.77;;;;;;;11.18;100.00;98890.13;5005951;28;20040;-72
2024/02/08 05:37:39;;;;;;;54.13;9.60;;;;;;;11.18;100.00;98895.69;5022121;28;20048;-71
2024/02/08 05:40:05;;;;;;;58.95;10.40;;;;;;;11.19;100.00;98909.22;5022397;28;20032;-71
2024/02/08 05:42:33;;;;;;;53.65;9.45;;;;;;;11.19;100.00;98883.41;5052496;28;20121;-72
2024/02/08 05:45:18;;;;;;;57.75;9.98;;;;;;;11.14;100.00;98895.56;5029448;28;20035;-72
2024/02/08 05:47:45;;;;;;;53.47;9.48;;;;;;;11.18;100.00;98896.50;5078705;28;20080;-72
2024/02/08 05:50:21;;;;;;;58.33;9.90;;;;;;;11.18;100.00;98879.00;5073754;28;20027;-71
2024/02/08 05:52:56;;;;;;;58.17;10.45;;;;;;;11.17;100.00;98877.38;5068574;28;20044;-71
2024/02/08 05:55:24;;;;;;;54.42;9.60;;;;;;;11.13;100.00;98874.47;5072114;28;20028;-71
2024/02/08 05:57:52;;;;;;;46.13;8.82;;;;;;;11.13;100.00;98868.91;5055112;28;20040;-71
2024/02/08 06:00:45;;;;;;;54.47;8.48;;;;;;;11.13;100.00;98851.44;5084029;28;20064;-71
2024/02/08 06:03:17;;;;;;;48.25;8.13;;;;;;;11.12;100.00;98852.59;5047815;28;20032;-71
2024/02/08 06:05:45;;;;;;;43.85;8.23;;;;;;;11.11;100.00;98851.75;5071436;28;20046;-71
2024/02/08 06:08:25;;;;;;;51.53;8.63;;;;;;;11.08;100.00;98846.06;5055993;28;20035;-71
2024/02/08 06:10:52;;;;;;;41.60;8.63;;;;;;;11.07;100.00;98838.91;5056917;28;20028;-72
2024/02/08 06:13:22;;;;;;;42.90;8.05;;;;;;;11.06;100.00;98820.56;5053191;28;20043;-71
2024/02/08 06:15:53;;;;;;;38.88;8.32;;;;;;;11.04;100.00;98809.00;5040745;28;20036;-71
2024/02/08 06:18:30;;;;;;;44.58;8.02;;;;;;;11.02;100.00;98827.97;5051906;28;20035;-72
2024/02/08 06:21:12;;;;;;;46.67;7.15;;;;;;;10.99;100.00;98810.03;5068395;28;20040;-72
2024/02/08 06:23:43;;;;;;;35.33;7.90;;;;;;;10.99;100.00;98803.66;5083735;28;20035;-72
2024/02/08 06:31:40;;;;;;;37.17;7.90;;;;;;;10.95;100.00;98801.56;5030163;28;20043;-71
2024/02/08 06:36:34;;;;;;;45.78;7.15;;;;;;;10.89;100.00;98800.13;5065272;28;20058;-71
2024/02/08 06:39:20;;;;;;;33.67;7.60;;;;;;;10.90;100.00;98801.75;5048789;28;20028;-71
2024/02/08 06:41:52;;;;;;;39.97;7.40;;;;;;;10.89;100.00;98794.59;5059221;28;20541;-72
2024/02/08 07:41:54;;;;;;;24.83;4.90;;;;;;;10.70;100.00;98749.81;5063266;28;20050;-71
2024/02/08 07:44:22;;;;;;;20.83;5.43;;;;;;;10.73;100.00;98740.78;5061816;28;20104;-71
2024/02/08 07:46:54;;;;;;;25.33;5.22;;;;;;;10.70;100.00;98753.38;5036680;28;20048;-71
2024/02/08 07:49:29;;;;;;;21.02;4.93;;;;;;;10.73;100.00;98746.34;5038899;28;20033;-71
2024/02/08 07:51:58;;;;;;;19.92;5.18;;;;;;;10.73;100.00;98733.28;5026298;28;20061;-71
2024/02/08 07:54:28;;;;;;;32.20;6.70;;;;;;;10.73;100.00;98729.69;5024892;28;20029;-71
2024/02/08 07:56:59;;;;;;;33.67;6.15;;;;;;;10.73;100.00;98738.03;5040895;28;20028;-71
2024/02/08 07:59:26;;;;;;;39.10;6.60;;;;;;;10.71;100.00;98734.75;5041006;28;20036;-71
2024/02/08 08:01:53;;;;;;;31.67;6.40;;;;;;;10.74;100.00;98725.75;5023240;28;20033;-71
2024/02/08 08:07:23;;;;;;;28.85;6.32;;;;;;;10.76;100.00;98742.09;4973814;28;20031;-71
2024/02/08 08:10:06;;;;;;;31.60;6.15;;;;;;;10.77;100.00;98718.72;4966233;28;20047;-71
2024/02/08 08:12:35;;;;;;;35.33;7.53;;;;;;;10.78;100.00;98729.50;4974923;28;20035;-71
2024/02/08 08:19:55;;;;;;;30.33;7.32;;;;;;;10.78;100.00;98715.59;4960593;28;20416;-72
2024/02/08 08:27:52;;;;;;;30.42;6.50;;;;;;;10.80;100.00;98701.38;4965135;28;20431;-71
2024/02/08 08:30:27;;;;;;;35.95;7.55;;;;;;;10.80;100.00;98704.94;4960876;28;20046;-71
2024/02/08 08:40:48;;;;;;;39.28;7.25;;;;;;;10.82;100.00;98693.53;4987190;28;20032;-71
2024/02/08 08:43:19;;;;;;;48.40;7.85;;;;;;;10.82;100.00;98702.66;5055982;28;20044;-71
2024/02/08 08:45:53;;;;;;;33.40;6.10;;;;;;;10.81;100.00;98697.44;5032214;28;20040;-71
2024/02/08 08:48:19;;;;;;;38.50;7.15;;;;;;;10.82;100.00;98699.88;5065960;28;20088;-71
2024/02/08 08:50:50;;;;;;;34.33;7.47;;;;;;;10.83;100.00;98700.69;5082504;28;20025;-71
2024/02/08 08:53:19;;;;;;;37.33;8.00;;;;;;;10.79;100.00;98686.69;5060223;28;20502;-71
2024/02/08 08:55:51;;;;;;;40.40;8.82;;;;;;;10.81;100.00;98683.53;5070257;28;20385;-71
2024/02/08 08:58:22;;;;;;;37.03;7.82;;;;;;;10.79;100.00;98683.91;5070881;28;20033;-71
2024/02/08 09:00:58;;;;;;;43.47;7.97;;;;;;;10.78;100.00;98665.63;5070930;28;20036;-71
2024/02/08 09:03:28;;;;;;;38.08;7.53;;;;;;;10.81;100.00;98667.72;5074053;28;20161;-71
2024/02/08 09:05:57;;;;;;;30.70;7.20;;;;;;;10.81;100.00;98675.22;5072814;28;20028;-71
2024/02/08 09:08:41;;;;;;;32.20;7.03;;;;;;;10.82;100.00;98672.13;5055197;28;20029;-72
2024/02/08 09:11:12;;;;;;;40.83;7.57;;;;;;;10.82;100.00;98661.00;5071434;28;20025;-71
2024/02/08 09:13:44;;;;;;;30.75;7.22;;;;;;;10.82;100.00;98661.00;5052781;28;20614;-71
2024/02/08 09:19:04;;;;;;;31.67;7.53;;;;;;;10.81;100.00;98659.38;5073501;28;20052;-71
2024/02/08 09:21:32;;;;;;;26.90;7.40;;;;;;;10.81;100.00;98658.56;5071470;28;20039;-71
2024/02/08 09:24:11;;;;;;;33.95;8.32;;;;;;;10.82;100.00;98658.22;5058043;28;20042;-72
2024/02/08 09:26:51;;;;;;;38.33;7.35;;;;;;;10.84;100.00;98655.94;5049827;28;20036;-72
2024/02/08 09:29:27;;;;;;;33.47;7.65;;;;;;;10.80;100.00;98657.75;5065749;28;20302;-72
2024/02/08 09:31:58;;;;;;;33.65;8.48;;;;;;;10.84;100.00;98653.16;5070678;28;20031;-71
2024/02/08 09:34:37;;;;;;;30.42;7.90;;;;;;;10.86;100.00;98648.03;5054116;28;20389;-71
2024/02/08 09:37:10;;;;;;;30.75;7.82;;;;;;;10.88;100.00;98637.41;5059002;28;20025;-71
2024/02/08 09:42:27;;;;;;;35.72;9.13;;;;;;;10.89;100.00;98627.13;5072312;28;20025;-71
2024/02/08 09:44:56;;;;;;;39.17;8.95;;;;;;;10.89;100.00;98624.34;5057588;28;20080;-71
2024/02/08 09:47:25;;;;;;;37.30;8.85;;;;;;;10.93;100.00;98620.53;5063711;28;20382;-72
2024/02/08 09:50:00;;;;;;;36.28;8.13;;;;;;;10.97;100.00;98620.66;5072553;28;20039;-72
2024/02/08 09:52:40;;;;;;;39.72;8.15;;;;;;;11.00;100.00;98619.16;5082661;28;20021;-71
2024/02/08 09:55:18;;;;;;;44.58;7.35;;;;;;;11.01;100.00;98613.28;5069141;28;20135;-72
2024/02/08 09:57:47;;;;;;;41.38;7.72;;;;;;;11.04;100.00;98618.16;5056829;28;20032;-71
2024/02/08 10:00:34;;;;;;;47.13;8.73;;;;;;;11.05;100.00;98603.09;5065281;28;20400;-71
2024/02/08 10:03:05;;;;;;;34.88;8.27;;;;;;;11.09;100.00;98603.25;5074986;28;20028;-71
2024/02/08 10:08:28;;;;;;;31.48;7.57;;;;;;;11.13;100.00;98598.59;5072840;28;20035;-71
2024/02/08 10:11:11;;;;;;;30.55;7.72;;;;;;;11.14;100.00;98578.00;5073745;28;20062;-71
2024/02/08 10:19:23;;;;;;;34.75;7.97;;;;;;;11.19;100.00;98578.56;5060429;28;20103;-72
2024/02/08 10:22:04;;;;;;;32.20;7.93;;;;;;;11.21;100.00;98575.47;5040825;28;20063;-71
2024/02/08 10:27:30;;;;;;;32.40;8.15;;;;;;;11.25;100.00;98581.13;4983981;28;20129;-72
2024/02/08 10:30:05;;;;;;;34.67;8.77;;;;;;;11.25;100.00;98568.03;5056938;28;20028;-71
2024/02/08 10:32:34;;;;;;;32.70;7.55;;;;;;;11.23;100.00;98564.81;5087052;28;20020;-71
2024/02/08 10:35:20;;;;;;;32.60;6.93;;;;;;;11.26;100.00;98585.56;5058071;28;20024;-71
2024/02/08 10:38:07;;;;;;;32.17;8.43;;;;;;;11.26;100.00;98578.03;5085420;28;20563;-72
2024/02/08 10:40:34;;;;;;;34.15;8.00;;;;;;;11.25;100.00;98568.03;5076889;28;20042;-71
2024/02/08 10:43:02;;;;;;;39.15;8.00;;;;;;;11.27;100.00;98574.06;5058919;28;20032;-72
2024/02/08 10:45:32;;;;;;;36.10;8.63;;;;;;;11.25;100.00;98564.47;5046468;28;20032;-71
2024/02/08 10:47:59;;;;;;;33.03;8.02;;;;;;;11.26;100.00;98569.69;5061606;28;21058;-71
2024/02/08 10:50:28;;;;;;;34.65;7.88;;;;;;;11.27;100.00;98570.50;5050830;28;20454;-72
2024/02/08 10:53:00;;;;;;;34.33;7.40;;;;;;;11.27;100.00;98564.94;5070836;28;20056;-71
2024/02/08 10:55:39;;;;;;;33.90;7.53;;;;;;;11.25;100.00;98562.50;5057896;28;20104;-71
2024/02/08 11:03:14;;;;;;;39.90;8.02;;;;;;;11.28;100.00;98555.44;5076230;28;20031;-71
2024/02/08 11:08:32;;;;;;;32.88;7.53;;;;;;;11.28;100.00;98549.88;5070936;28;20024;-71
2024/02/08 11:11:03;;;;;;;40.38;8.50;;;;;;;11.29;100.00;98557.88;5072631;28;20043;-71
2024/02/08 11:13:30;;;;;;;27.67;7.63;;;;;;;11.30;100.00;98542.81;5069263;28;20092;-71
2024/02/08 11:16:19;;;;;;;33.30;8.18;;;;;;;11.31;100.00;98538.91;5055629;28;20067;-71
2024/02/08 11:18:48;;;;;;;35.97;7.90;;;;;;;11.29;100.00;98529.28;5051345;28;20032;-72
2024/02/08 11:21:19;;;;;;;36.78;9.10;;;;;;;11.31;100.00;98525.00;5052460;28;20049;-72
2024/02/08 11:23:57;;;;;;;32.65;7.95;;;;;;;11.31;100.00;98518.59;5073970;28;20032;-71
2024/02/08 11:26:25;;;;;;;40.47;8.02;;;;;;;11.31;100.00;98526.94;5062572;28;20036;-72
2024/02/08 11:29:18;;;;;;;35.38;8.00;;;;;;;11.32;100.00;98523.03;5068366;28;20024;-71
2024/02/08 11:31:46;;;;;;;29.80;7.45;;;;;;;11.31;100.00;98511.09;5074081;28;20028;-72
2024/02/08 11:34:24;;;;;;;35.30;8.52;;;;;;;11.31;100.00;98505.56;5061236;28;20468;-72
2024/02/08 11:36:52;;;;;;;46.00;8.07;;;;;;;11.30;100.00;98500.31;5073088;28;20064;-71
2024/02/08 11:39:28;;;;;;;36.55;8.00;;;;;;;11.30;100.00;98517.81;5071619;28;20048;-71
2024/02/08 11:42:05;;;;;;;35.55;7.78;;;;;;;11.29;100.00;98509.84;5085008;28;20103;-72
2024/02/08 11:44:36;;;;;;;35.03;7.53;;;;;;;11.26;100.00;98504.97;5073331;28;20044;-72
2024/02/08 11:47:19;;;;;;;32.70;7.43;;;;;;;11.29;100.00;98512.63;5063050;28;20136;-72
2024/02/08 11:49:54;;;;;;;;;;;;;;;11.31;100.00;98494.44;5077724;28;20040;-72
2024/02/08 11:52:20;;;;;;;29.08;7.82;;;;;;;11.32;100.00;98495.25;5060235;28;19909;-72
2024/02/08 11:55:02;;;;;;;39.85;7.40;;;;;;;11.32;100.00;98487.72;5077220;28;20035;-72
2024/02/08 11:57:36;;;;;;;37.00;7.32;;;;;;;11.36;100.00;98482.25;5042325;28;20085;-72
2024/02/08 12:00:15;;;;;;;31.45;6.55;;;;;;;11.32;100.00;98465.47;5075116;28;20024;-72
2024/02/08 12:02:56;;;;;;;39.15;7.10;;;;;;;11.34;100.00;98477.06;5052320;28;20020;-72
2024/02/08 12:05:25;;;;;;;33.90;6.88;;;;;;;11.33;100.00;98457.94;5046822;28;20138;-71
2024/02/08 12:07:51;;;;;;;29.83;6.35;;;;;;;11.34;100.00;98459.59;5044123;28;20082;-72
2024/02/08 12:10:17;;;;;;;33.22;6.75;;;;;;;11.35;100.00;98462.00;5073082;28;20037;-72
2024/02/08 12:12:44;;;;;;;27.63;6.80;;;;;;;11.36;100.00;98443.34;5041014;28;20064;-71
2024/02/08 12:15:13;;;;;;;31.30;7.25;;;;;;;11.36;100.00;98446.13;5043349;28;20024;-72
2024/02/08 12:17:44;;;;;;;34.03;6.38;;;;;;;11.37;100.00;98451.34;5060586;28;20029;-72
2024/02/08 12:20:10;;;;;;;35.53;6.68;;;;;;;11.37;100.00;98443.00;5060203;28;20040;-71
2024/02/08 12:22:41;;;;;;;31.48;7.72;;;;;;;11.36;100.00;98435.00;5043660;28;20068;-72
2024/02/08 12:25:15;;;;;;;30.90;6.15;;;;;;;11.37;100.00;98442.22;5044370;28;20040;-72
2024/02/08 12:27:48;;;;;;;34.38;6.93;;;;;;;11.37;100.00;98426.34;5060576;28;20034;-71
2024/02/08 12:30:21;;;;;;;;;;;;;;;11.40;100.00;98420.06;5049670;28;20025;-71
2024/02/08 12:32:54;;;;;;;30.58;6.70;;;;;;;11.41;100.00;98412.53;5083009;28;19983;-72
2024/02/08 12:35:20;;;;;;;35.03;6.75;;;;;;;11.41;100.00;98407.78;5041177;28;20110;-71
2024/02/08 12:37:47;;;;;;;32.80;6.70;;;;;;;11.44;100.00;98397.94;5049897;28;20040;-72
2024/02/08 12:40:16;;;;;;;30.00;6.32;;;;;;;11.47;100.00;98393.66;5059737;28;20028;-71
2024/02/08 12:42:42;;;;;;;28.27;6.68;;;;;;;11.48;100.00;98393.31;5057924;28;20043;-72
2024/02/08 12:45:12;;;;;;;29.80;6.53;;;;;;;11.50;100.00;98392.94;5051257;28;20037;-72
2024/02/08 12:47:40;;;;;;;33.80;6.43;;;;;;;11.52;100.00;98393.41;5050121;28;20044;-71
2024/02/08 12:50:10;;;;;;;28.08;5.80;;;;;;;11.53;100.00;98383.91;5074439;28;20036;-71
2024/02/08 12:52:36;;;;;;;35.72;6.93;;;;;;;11.57;100.00;98380.06;5021960;28;20549;-71
2024/02/08 12:55:02;;;;;;;34.33;7.03;;;;;;;11.59;100.00;98368.63;5040976;28;20062;-72
2024/02/08 12:57:28;;;;;;;36.10;6.88;;;;;;;11.58;100.00;98362.22;5068559;28;20032;-72
2024/02/08 13:00:13;;;;;;;27.73;5.72;;;;;;;11.63;100.00;98361.97;5071010;28;20369;-72
2024/02/08 13:02:39;;;;;;;23.88;6.32;;;;;;;11.62;100.00;98351.22;5041532;28;20024;-71
2024/02/08 13:05:05;;;;;;;30.05;6.03;;;;;;;11.63;100.00;98348.06;5071026;28;20078;-71
2024/02/08 13:07:31;;;;;;;31.77;5.93;;;;;;;11.64;100.00;98334.97;5071770;28;20035;-71
2024/02/08 13:10:04;;;;;;;35.00;6.30;;;;;;;11.67;100.00;98328.69;5045249;28;20021;-72
2024/02/08 13:12:30;;;;;;;;;;;;;;;11.69;100.00;98329.16;5089732;28;20052;-72
2024/02/08 13:15:02;;;;;;;26.85;5.93;;;;;;;11.69;100.00;98309.69;5046985;28;20330;-72
2024/02/08 13:17:33;;;;;;;30.42;6.53;;;;;;;11.70;100.00;98297.44;5060476;28;20032;-71
2024/02/08 13:19:59;;;;;;;30.83;5.55;;;;;;;11.71;100.00;98306.56;5030320;28;20037;-72
2024/02/08 13:22:30;;;;;;;30.42;6.32;;;;;;;11.72;100.00;98294.28;5089744;28;20039;-71
2024/02/08 13:25:03;;;;;;;39.13;6.32;;;;;;;11.73;100.00;98282.81;5052014;28;20040;-72
2024/02/08 13:27:33;;;;;;;31.02;5.97;;;;;;;11.75;100.00;98269.34;5071213;28;20043;-72
2024/02/08 13:29:59;;;;;;;25.73;5.63;;;;;;;11.75;100.00;98263.78;5070046;28;20052;-71
2024/02/08 13:32:31;;;;;;;29.38;6.13;;;;;;;11.76;100.00;98264.63;5046993;28;20392;-71
2024/02/08 13:34:57;;;;;;;33.88;7.10;;;;;;;11.82;100.00;98269.53;5071872;28;20115;-72
2024/02/08 13:37:26;;;;;;;31.98;6.72;;;;;;;11.83;100.00;98257.25;5082776;28;20036;-72
2024/02/08 13:40:05;;;;;;;36.33;7.55;;;;;;;11.85;100.00;98240.22;5056022;28;20107;-72
2024/02/08 13:42:30;;;;;;;34.88;7.75;;;;;;;11.83;100.00;98232.22;5057181;28;20024;-72
2024/02/08 13:45:01;;;;;;;31.00;7.88;;;;;;;11.87;100.00;98220.41;5073396;28;20029;-72
2024/02/08 13:47:30;;;;;;;37.75;7.30;;;;;;;11.87;100.00;98214.84;5044991;28;20494;-72
2024/02/08 13:49:57;;;;;;;29.00;6.85;;;;;;;11.88;100.00;98197.00;5052512;28;20032;-71
2024/02/08 13:52:25;;;;;;;32.88;6.75;;;;;;;11.87;100.00;98190.66;5041462;28;20033;-71
2024/02/08 13:54:54;;;;;;;30.83;7.22;;;;;;;11.88;100.00;98181.13;5055094;28;20036;-72
2024/02/08 13:57:20;;;;;;;34.53;7.32;;;;;;;11.91;100.00;98176.81;5038689;28;20108;-71
2024/02/08 13:59:55;;;;;;;30.63;7.03;;;;;;;11.95;100.00;98174.91;5023703;28;20039;-71
2024/02/08 14:02:25;;;;;;;31.98;6.88;;;;;;;11.95;100.00;98161.00;5043834;28;20424;-71
2024/02/08 14:04:55;;;;;;;30.95;7.00;;;;;;;11.99;100.00;98168.28;5059493;28;20389;-72
2024/02/08 14:07:25;;;;;;;27.23;7.32;;;;;;;12.01;100.00;98165.16;5049679;28;20111;-72